sensor_id;sensor_type;location;lat;lon;timestamp;temperature;humidity
18225;DHT22;9237;48.590;8.854;2024-03-22T00:01:09;7.40;99.90
18225;DHT22;9237;48.590;8.854;2024-03-22T00:03:34;7.20;99.90
18225;DHT22;9237;48.590;8.854;2024-03-22T00:06:01;7.00;99.90
18225;DHT22;9237;48.590;8.854;2024-03-22T00:08:28;6.90;99.90
18225;DHT22;9237;48.590;8.854;2024-03-22T00:10:55;6.80;99.90
18225;DHT22;9237;48.590;8.854;2024-03-22T00:13:20;6.80;99.90
18225;DHT22;9237;48.590;8.854;2024-03-22T00:15:47;6.80;99.90
18225;DHT22;9237;48.590;8.854;2024-03-22T00:18:14;6.80;99.90
18225;DHT22;9237;48.590;8.854;2024-03-22T00:20:41;6.70;99.90
18225;DHT22;9237;48.590;8.854;2024-03-22T00:23:07;6.60;99.90
18225;DHT22;9237;48.590;8.854;2024-03-22T00:25:34;6.50;99.90
18225;DHT22;9237;48.590;8.854;2024-03-22T00:27:59;6.50;99.90
18225;DHT22;9237;48.590;8.854;2024-03-22T00:30:26;6.50;99.90
18225;DHT22;9237;48.590;8.854;2024-03-22T00:32:52;6.60;99.90
18225;DHT22;9237;48.590;8.854;2024-03-22T00:35:20;6.50;99.90
18225;DHT22;9237;48.590;8.854;2024-03-22T00:37:46;6.30;99.90
18225;DHT22;9237;48.590;8.854;2024-03-22T00:40:13;6.20;99.90
18225;DHT22;9237;48.590;8.854;2024-03-22T00:42:38;6.10;99.90
18225;DHT22;9237;48.590;8.854;2024-03-22T00:45:06;6.00;99.90
18225;DHT22;9237;48.590;8.854;2024-03-22T00:47:32;6.00;99.90
18225;DHT22;9237;48.590;8.854;2024-03-22T00:49:58;6.10;99.90
18225;DHT22;9237;48.590;8.854;2024-03-22T00:52:26;6.20;99.90
18225;DHT22;9237;48.590;8.854;2024-03-22T00:54:52;6.40;99.90
18225;DHT22;9237;48.590;8.854;2024-03-22T00:57:18;6.30;99.90
18225;DHT22;9237;48.590;8.854;2024-03-22T00:59:45;6.30;99.90
18225;DHT22;9237;48.590;8.854;2024-03-22T01:02:11;6.20;99.90
18225;DHT22;9237;48.590;8.854;2024-03-22T01:04:37;6.00;99.90
18225;DHT22;9237;48.590;8.854;2024-03-22T01:07:03;5.90;99.90
18225;DHT22;9237;48.590;8.854;2024-03-22T01:09:31;6.00;99.90
18225;DHT22;9237;48.590;8.854;2024-03-22T01:11:57;5.90;99.90
18225;DHT22;9237;48.590;8.854;2024-03-22T01:14:24;5.90;99.90
18225;DHT22;9237;48.590;8.854;2024-03-22T01:16:50;5.90;99.90
18225;DHT22;9237;48.590;8.854;2024-03-22T01:19:16;5.90;99.90
18225;DHT22;9237;48.590;8.854;2024-03-22T01:21:42;5.80;99.90
18225;DHT22;9237;48.590;8.854;2024-03-22T01:24:09;5.70;99.90
18225;DHT22;9237;48.590;8.854;2024-03-22T01:26:36;5.60;99.90
18225;DHT22;9237;48.590;8.854;2024-03-22T01:29:03;5.50;99.90
18225;DHT22;9237;48.590;8.854;2024-03-22T01:31:29;5.40;99.90
18225;DHT22;9237;48.590;8.854;2024-03-22T01:33:55;5.30;99.90
18225;DHT22;9237;48.590;8.854;2024-03-22T01:36:21;5.20;99.90
18225;DHT22;9237;48.590;8.854;2024-03-22T01:38:48;5.10;99.90
18225;DHT22;9237;48.590;8.854;2024-03-22T01:41:14;5.00;99.90
18225;DHT22;9237;48.590;8.854;2024-03-22T01:43:42;4.90;99.90
18225;DHT22;9237;48.590;8.854;2024-03-22T01:46:08;4.90;99.90
18225;DHT22;9237;48.590;8.854;2024-03-22T01:48:34;5.00;99.90
18225;DHT22;9237;48.590;8.854;2024-03-22T01:51:00;5.00;99.90
18225;DHT22;9237;48.590;8.854;2024-03-22T01:53:28;5.00;99.90
18225;DHT22;9237;48.590;8.854;2024-03-22T01:55:54;4.90;99.90
18225;DHT22;9237;48.590;8.854;2024-03-22T01:58:21;4.90;99.90
18225;DHT22;9237;48.590;8.854;2024-03-22T02:00:49;4.80;99.90
18225;DHT22;9237;48.590;8.854;2024-03-22T02:03:16;4.70;99.90
18225;DHT22;9237;48.590;8.854;2024-03-22T02:05:42;4.80;99.90
18225;DHT22;9237;48.590;8.854;2024-03-22T02:08:08;5.10;99.90
18225;DHT22;9237;48.590;8.854;2024-03-22T02:10:35;4.90;99.90
18225;DHT22;9237;48.590;8.854;2024-03-22T02:13:02;4.80;99.90
18225;DHT22;9237;48.590;8.854;2024-03-22T02:15:28;4.80;99.90
18225;DHT22;9237;48.590;8.854;2024-03-22T02:17:56;4.70;99.90
18225;DHT22;9237;48.590;8.854;2024-03-22T02:20:22;4.70;99.90
18225;DHT22;9237;48.590;8.854;2024-03-22T02:22:49;4.70;99.90
18225;DHT22;9237;48.590;8.854;2024-03-22T02:25:16;4.70;99.90
18225;DHT22;9237;48.590;8.854;2024-03-22T02:27:43;4.80;99.90
18225;DHT22;9237;48.590;8.854;2024-03-22T02:30:09;4.70;99.90
18225;DHT22;9237;48.590;8.854;2024-03-22T02:32:36;4.50;99.90
18225;DHT22;9237;48.590;8.854;2024-03-22T02:35:03;4.30;99.90
18225;DHT22;9237;48.590;8.854;2024-03-22T02:37:29;4.30;99.90
18225;DHT22;9237;48.590;8.854;2024-03-22T02:39:55;4.40;99.90
18225;DHT22;9237;48.590;8.854;2024-03-22T02:42:23;4.40;99.90
18225;DHT22;9237;48.590;8.854;2024-03-22T02:44:49;4.30;99.90
18225;DHT22;9237;48.590;8.854;2024-03-22T02:47:16;4.30;99.90
18225;DHT22;9237;48.590;8.854;2024-03-22T02:49:42;4.10;99.90
18225;DHT22;9237;48.590;8.854;2024-03-22T02:52:08;4.00;99.90
18225;DHT22;9237;48.590;8.854;2024-03-22T02:54:34;4.00;99.90
18225;DHT22;9237;48.590;8.854;2024-03-22T02:57:01;4.00;99.90
18225;DHT22;9237;48.590;8.854;2024-03-22T02:59:28;4.10;99.90
18225;DHT22;9237;48.590;8.854;2024-03-22T03:01:55;4.10;99.90
18225;DHT22;9237;48.590;8.854;2024-03-22T03:04:21;3.90;99.90
18225;DHT22;9237;48.590;8.854;2024-03-22T03:06:48;3.90;99.90
18225;DHT22;9237;48.590;8.854;2024-03-22T03:09:14;4.00;99.90
18225;DHT22;9237;48.590;8.854;2024-03-22T03:11:40;4.00;99.90
18225;DHT22;9237;48.590;8.854;2024-03-22T03:14:06;4.00;99.90
18225;DHT22;9237;48.590;8.854;2024-03-22T03:16:34;4.00;99.90
18225;DHT22;9237;48.590;8.854;2024-03-22T03:19:00;4.00;99.90
18225;DHT22;9237;48.590;8.854;2024-03-22T03:21:27;4.30;99.90
18225;DHT22;9237;48.590;8.854;2024-03-22T03:23:53;4.30;99.90
18225;DHT22;9237;48.590;8.854;2024-03-22T03:26:19;4.20;99.90
18225;DHT22;9237;48.590;8.854;2024-03-22T03:28:45;4.20;99.90
18225;DHT22;9237;48.590;8.854;2024-03-22T03:31:12;4.20;99.90
18225;DHT22;9237;48.590;8.854;2024-03-22T03:33:39;4.20;99.90
18225;DHT22;9237;48.590;8.854;2024-03-22T03:36:06;4.20;99.90
18225;DHT22;9237;48.590;8.854;2024-03-22T03:38:32;4.20;99.90
18225;DHT22;9237;48.590;8.854;2024-03-22T03:40:58;4.20;99.90
18225;DHT22;9237;48.590;8.854;2024-03-22T03:43:24;4.30;99.90
18225;DHT22;9237;48.590;8.854;2024-03-22T03:45:51;4.30;99.90
18225;DHT22;9237;48.590;8.854;2024-03-22T03:48:19;4.40;99.90
18225;DHT22;9237;48.590;8.854;2024-03-22T03:50:52;4.40;99.90
18225;DHT22;9237;48.590;8.854;2024-03-22T03:53:18;4.40;99.90
18225;DHT22;9237;48.590;8.854;2024-03-22T03:55:46;4.30;99.90
18225;DHT22;9237;48.590;8.854;2024-03-22T03:58:11;4.40;99.90
18225;DHT22;9237;48.590;8.854;2024-03-22T04:00:38;4.50;99.90
18225;DHT22;9237;48.590;8.854;2024-03-22T04:03:04;4.50;99.90
18225;DHT22;9237;48.590;8.854;2024-03-22T04:05:31;4.50;99.90
18225;DHT22;9237;48.590;8.854;2024-03-22T04:07:58;4.50;99.90
18225;DHT22;9237;48.590;8.854;2024-03-22T04:10:25;4.60;99.90
18225;DHT22;9237;48.590;8.854;2024-03-22T04:12:51;4.60;99.90
18225;DHT22;9237;48.590;8.854;2024-03-22T04:15:18;4.50;99.90
18225;DHT22;9237;48.590;8.854;2024-03-22T04:17:43;4.50;99.90
18225;DHT22;9237;48.590;8.854;2024-03-22T04:20:11;4.50;99.90
18225;DHT22;9237;48.590;8.854;2024-03-22T04:22:37;4.50;99.90
18225;DHT22;9237;48.590;8.854;2024-03-22T04:25:06;4.60;99.90
18225;DHT22;9237;48.590;8.854;2024-03-22T04:27:32;4.80;99.90
18225;DHT22;9237;48.590;8.854;2024-03-22T04:30:02;4.90;99.90
18225;DHT22;9237;48.590;8.854;2024-03-22T04:32:28;5.10;99.90
18225;DHT22;9237;48.590;8.854;2024-03-22T04:34:54;5.10;99.90
18225;DHT22;9237;48.590;8.854;2024-03-22T04:37:20;5.20;99.90
18225;DHT22;9237;48.590;8.854;2024-03-22T04:39:47;5.20;99.90
18225;DHT22;9237;48.590;8.854;2024-03-22T04:42:15;5.20;99.90
18225;DHT22;9237;48.590;8.854;2024-03-22T04:44:41;5.10;99.90
18225;DHT22;9237;48.590;8.854;2024-03-22T04:47:08;5.10;99.90
18225;DHT22;9237;48.590;8.854;2024-03-22T04:49:35;5.10;99.90
18225;DHT22;9237;48.590;8.854;2024-03-22T04:52:01;5.00;99.90
18225;DHT22;9237;48.590;8.854;2024-03-22T04:54:28;5.00;99.90
18225;DHT22;9237;48.590;8.854;2024-03-22T04:56:53;5.00;99.90
18225;DHT22;9237;48.590;8.854;2024-03-22T04:59:21;5.00;99.90
18225;DHT22;9237;48.590;8.854;2024-03-22T05:01:47;5.00;99.90
18225;DHT22;9237;48.590;8.854;2024-03-22T05:04:14;5.00;99.90
18225;DHT22;9237;48.590;8.854;2024-03-22T05:06:40;5.10;99.90
18225;DHT22;9237;48.590;8.854;2024-03-22T05:09:07;5.10;99.90
18225;DHT22;9237;48.590;8.854;2024-03-22T05:11:35;5.10;99.90
18225;DHT22;9237;48.590;8.854;2024-03-22T05:14:02;5.10;99.90
18225;DHT22;9237;48.590;8.854;2024-03-22T05:16:29;5.20;99.90
18225;DHT22;9237;48.590;8.854;2024-03-22T05:18:56;5.30;99.90
18225;DHT22;9237;48.590;8.854;2024-03-22T05:21:22;5.30;99.90
18225;DHT22;9237;48.590;8.854;2024-03-22T05:23:49;5.20;99.90
18225;DHT22;9237;48.590;8.854;2024-03-22T05:26:14;5.20;99.90
18225;DHT22;9237;48.590;8.854;2024-03-22T05:28:41;5.20;99.90
18225;DHT22;9237;48.590;8.854;2024-03-22T05:31:07;5.20;99.90
18225;DHT22;9237;48.590;8.854;2024-03-22T05:33:36;5.10;99.90
18225;DHT22;9237;48.590;8.854;2024-03-22T05:36:01;5.00;99.90
18225;DHT22;9237;48.590;8.854;2024-03-22T05:38:28;5.00;99.90
18225;DHT22;9237;48.590;8.854;2024-03-22T05:40:54;5.00;99.90
18225;DHT22;9237;48.590;8.854;2024-03-22T05:43:21;5.00;99.90
18225;DHT22;9237;48.590;8.854;2024-03-22T05:45:47;5.00;99.90
18225;DHT22;9237;48.590;8.854;2024-03-22T05:48:14;5.00;99.90
18225;DHT22;9237;48.590;8.854;2024-03-22T05:50:42;5.00;99.90
18225;DHT22;9237;48.590;8.854;2024-03-22T05:53:08;5.00;99.90
18225;DHT22;9237;48.590;8.854;2024-03-22T05:55:34;4.90;99.90
18225;DHT22;9237;48.590;8.854;2024-03-22T05:58:01;4.90;99.90
18225;DHT22;9237;48.590;8.854;2024-03-22T06:00:27;4.90;99.90
18225;DHT22;9237;48.590;8.854;2024-03-22T06:02:54;4.80;99.90
18225;DHT22;9237;48.590;8.854;2024-03-22T06:05:20;4.80;99.90
18225;DHT22;9237;48.590;8.854;2024-03-22T06:07:48;4.80;99.90
18225;DHT22;9237;48.590;8.854;2024-03-22T06:10:14;4.90;99.90
18225;DHT22;9237;48.590;8.854;2024-03-22T06:12:42;5.10;99.90
18225;DHT22;9237;48.590;8.854;2024-03-22T06:15:10;5.30;99.90
18225;DHT22;9237;48.590;8.854;2024-03-22T06:17:36;5.50;99.90
18225;DHT22;9237;48.590;8.854;2024-03-22T06:20:04;5.60;99.90
18225;DHT22;9237;48.590;8.854;2024-03-22T06:22:31;5.60;99.90
18225;DHT22;9237;48.590;8.854;2024-03-22T06:24:59;5.80;99.90
18225;DHT22;9237;48.590;8.854;2024-03-22T06:27:24;6.00;99.90
18225;DHT22;9237;48.590;8.854;2024-03-22T06:29:51;6.30;99.90
18225;DHT22;9237;48.590;8.854;2024-03-22T06:32:17;6.50;99.90
18225;DHT22;9237;48.590;8.854;2024-03-22T06:34:44;6.60;99.90
18225;DHT22;9237;48.590;8.854;2024-03-22T06:37:09;6.80;99.90
18225;DHT22;9237;48.590;8.854;2024-03-22T06:39:36;7.00;99.90
18225;DHT22;9237;48.590;8.854;2024-03-22T06:42:04;7.50;99.90
18225;DHT22;9237;48.590;8.854;2024-03-22T06:44:31;8.00;99.90
18225;DHT22;9237;48.590;8.854;2024-03-22T06:46:57;8.60;99.90
18225;DHT22;9237;48.590;8.854;2024-03-22T06:49:24;9.10;99.90
18225;DHT22;9237;48.590;8.854;2024-03-22T06:51:50;9.60;99.90
18225;DHT22;9237;48.590;8.854;2024-03-22T06:54:17;10.00;99.90
18225;DHT22;9237;48.590;8.854;2024-03-22T06:56:43;10.50;99.90
18225;DHT22;9237;48.590;8.854;2024-03-22T06:59:11;10.80;99.90
18225;DHT22;9237;48.590;8.854;2024-03-22T07:01:37;10.80;99.90
18225;DHT22;9237;48.590;8.854;2024-03-22T07:04:04;10.90;99.90
18225;DHT22;9237;48.590;8.854;2024-03-22T07:06:29;11.20;99.90
18225;DHT22;9237;48.590;8.854;2024-03-22T07:08:56;11.60;99.90
18225;DHT22;9237;48.590;8.854;2024-03-22T07:11:22;11.60;99.90
18225;DHT22;9237;48.590;8.854;2024-03-22T07:13:49;11.70;99.90
18225;DHT22;9237;48.590;8.854;2024-03-22T07:16:16;11.60;99.90
18225;DHT22;9237;48.590;8.854;2024-03-22T07:18:43;11.40;99.90
18225;DHT22;9237;48.590;8.854;2024-03-22T07:21:08;11.40;99.90
18225;DHT22;9237;48.590;8.854;2024-03-22T07:23:36;11.60;99.90
18225;DHT22;9237;48.590;8.854;2024-03-22T07:26:02;11.60;99.90
18225;DHT22;9237;48.590;8.854;2024-03-22T07:28:31;11.90;99.90
18225;DHT22;9237;48.590;8.854;2024-03-22T07:30:57;11.90;99.90
18225;DHT22;9237;48.590;8.854;2024-03-22T07:33:25;12.00;99.90
18225;DHT22;9237;48.590;8.854;2024-03-22T07:35:51;12.40;99.90
18225;DHT22;9237;48.590;8.854;2024-03-22T07:38:19;12.90;99.90
18225;DHT22;9237;48.590;8.854;2024-03-22T07:40:45;13.20;99.90
18225;DHT22;9237;48.590;8.854;2024-03-22T07:43:12;13.40;99.90
18225;DHT22;9237;48.590;8.854;2024-03-22T07:45:40;13.50;99.90
18225;DHT22;9237;48.590;8.854;2024-03-22T07:48:07;13.40;99.90
18225;DHT22;9237;48.590;8.854;2024-03-22T07:50:34;13.60;99.90
18225;DHT22;9237;48.590;8.854;2024-03-22T07:53:01;13.80;99.90
18225;DHT22;9237;48.590;8.854;2024-03-22T07:55:27;14.30;99.90
18225;DHT22;9237;48.590;8.854;2024-03-22T07:57:53;14.40;99.90
18225;DHT22;9237;48.590;8.854;2024-03-22T08:00:19;14.40;99.90
18225;DHT22;9237;48.590;8.854;2024-03-22T08:02:46;14.80;99.90
18225;DHT22;9237;48.590;8.854;2024-03-22T08:05:12;14.90;99.90
18225;DHT22;9237;48.590;8.854;2024-03-22T08:07:40;15.20;99.90
18225;DHT22;9237;48.590;8.854;2024-03-22T08:10:07;15.30;99.90
18225;DHT22;9237;48.590;8.854;2024-03-22T08:12:34;15.20;99.90
18225;DHT22;9237;48.590;8.854;2024-03-22T08:15:00;15.50;99.90
18225;DHT22;9237;48.590;8.854;2024-03-22T08:17:26;15.70;99.90
18225;DHT22;9237;48.590;8.854;2024-03-22T08:19:52;16.10;99.90
18225;DHT22;9237;48.590;8.854;2024-03-22T08:22:19;16.30;99.90
18225;DHT22;9237;48.590;8.854;2024-03-22T08:24:46;16.20;99.90
18225;DHT22;9237;48.590;8.854;2024-03-22T08:27:13;16.70;99.90
18225;DHT22;9237;48.590;8.854;2024-03-22T08:29:40;17.20;99.90
18225;DHT22;9237;48.590;8.854;2024-03-22T08:32:07;17.10;99.90
18225;DHT22;9237;48.590;8.854;2024-03-22T08:34:33;17.30;99.90
18225;DHT22;9237;48.590;8.854;2024-03-22T08:36:59;17.10;99.90
18225;DHT22;9237;48.590;8.854;2024-03-22T08:39:25;17.60;99.90
18225;DHT22;9237;48.590;8.854;2024-03-22T08:41:53;17.40;99.90
18225;DHT22;9237;48.590;8.854;2024-03-22T08:44:20;17.50;99.90
18225;DHT22;9237;48.590;8.854;2024-03-22T08:46:47;17.70;99.90
18225;DHT22;9237;48.590;8.854;2024-03-22T08:49:13;17.80;99.90
18225;DHT22;9237;48.590;8.854;2024-03-22T08:51:39;17.80;99.90
18225;DHT22;9237;48.590;8.854;2024-03-22T08:54:05;18.20;99.90
18225;DHT22;9237;48.590;8.854;2024-03-22T08:56:32;18.80;99.90
18225;DHT22;9237;48.590;8.854;2024-03-22T08:58:59;18.70;99.90
18225;DHT22;9237;48.590;8.854;2024-03-22T09:01:26;18.80;99.90
18225;DHT22;9237;48.590;8.854;2024-03-22T09:03:52;18.70;99.90
18225;DHT22;9237;48.590;8.854;2024-03-22T09:06:19;18.90;99.90
18225;DHT22;9237;48.590;8.854;2024-03-22T09:08:45;18.70;99.90
18225;DHT22;9237;48.590;8.854;2024-03-22T09:11:12;19.40;99.90
18225;DHT22;9237;48.590;8.854;2024-03-22T09:13:38;20.10;99.90
18225;DHT22;9237;48.590;8.854;2024-03-22T09:16:06;20.70;99.90
18225;DHT22;9237;48.590;8.854;2024-03-22T09:18:32;21.20;99.90
18225;DHT22;9237;48.590;8.854;2024-03-22T09:20:59;21.20;99.90
18225;DHT22;9237;48.590;8.854;2024-03-22T09:23:25;21.40;99.90
18225;DHT22;9237;48.590;8.854;2024-03-22T09:25:51;21.60;99.90
18225;DHT22;9237;48.590;8.854;2024-03-22T09:28:17;21.80;99.90
18225;DHT22;9237;48.590;8.854;2024-03-22T09:30:44;21.40;99.90
18225;DHT22;9237;48.590;8.854;2024-03-22T09:33:11;21.00;99.30
18225;DHT22;9237;48.590;8.854;2024-03-22T09:35:38;21.40;99.40
18225;DHT22;9237;48.590;8.854;2024-03-22T09:38:04;21.40;97.40
18225;DHT22;9237;48.590;8.854;2024-03-22T09:40:30;20.30;97.00
18225;DHT22;9237;48.590;8.854;2024-03-22T09:43:01;20.60;96.60
18225;DHT22;9237;48.590;8.854;2024-03-22T09:45:30;20.30;95.20
18225;DHT22;9237;48.590;8.854;2024-03-22T09:47:57;20.60;93.40
18225;DHT22;9237;48.590;8.854;2024-03-22T09:50:26;20.90;91.80
18225;DHT22;9237;48.590;8.854;2024-03-22T09:52:52;21.20;90.80
18225;DHT22;9237;48.590;8.854;2024-03-22T09:55:22;20.90;89.70
18225;DHT22;9237;48.590;8.854;2024-03-22T09:57:49;20.50;93.00
18225;DHT22;9237;48.590;8.854;2024-03-22T10:00:18;20.50;91.70
18225;DHT22;9237;48.590;8.854;2024-03-22T10:02:46;20.80;90.60
18225;DHT22;9237;48.590;8.854;2024-03-22T10:05:13;20.90;91.40
18225;DHT22;9237;48.590;8.854;2024-03-22T10:07:40;20.70;90.60
18225;DHT22;9237;48.590;8.854;2024-03-22T10:10:08;20.30;90.70
18225;DHT22;9237;48.590;8.854;2024-03-22T10:12:34;20.30;90.10
18225;DHT22;9237;48.590;8.854;2024-03-22T10:15:00;20.10;90.40
18225;DHT22;9237;48.590;8.854;2024-03-22T10:17:26;20.20;90.00
18225;DHT22;9237;48.590;8.854;2024-03-22T10:19:53;20.70;90.00
18225;DHT22;9237;48.590;8.854;2024-03-22T10:22:20;21.30;87.80
18225;DHT22;9237;48.590;8.854;2024-03-22T10:24:48;22.10;88.00
18225;DHT22;9237;48.590;8.854;2024-03-22T10:27:14;22.70;85.10
18225;DHT22;9237;48.590;8.854;2024-03-22T10:29:41;23.00;84.00
18225;DHT22;9237;48.590;8.854;2024-03-22T10:32:08;22.70;81.60
18225;DHT22;9237;48.590;8.854;2024-03-22T10:34:36;22.40;81.10
18225;DHT22;9237;48.590;8.854;2024-03-22T10:37:03;22.10;81.20
18225;DHT22;9237;48.590;8.854;2024-03-22T10:39:30;21.90;80.80
18225;DHT22;9237;48.590;8.854;2024-03-22T10:41:57;21.80;81.60
18225;DHT22;9237;48.590;8.854;2024-03-22T10:44:25;22.00;80.90
18225;DHT22;9237;48.590;8.854;2024-03-22T10:46:53;21.90;79.30
18225;DHT22;9237;48.590;8.854;2024-03-22T10:49:23;21.80;79.50
18225;DHT22;9237;48.590;8.854;2024-03-22T10:51:51;21.60;79.10
18225;DHT22;9237;48.590;8.854;2024-03-22T10:54:21;21.20;78.70
18225;DHT22;9237;48.590;8.854;2024-03-22T10:56:48;21.10;78.50
18225;DHT22;9237;48.590;8.854;2024-03-22T10:59:20;21.00;79.20
18225;DHT22;9237;48.590;8.854;2024-03-22T11:01:46;21.10;81.00
18225;DHT22;9237;48.590;8.854;2024-03-22T11:04:15;21.00;78.00
18225;DHT22;9237;48.590;8.854;2024-03-22T11:06:41;20.80;78.30
18225;DHT22;9237;48.590;8.854;2024-03-22T11:09:18;20.50;77.30
18225;DHT22;9237;48.590;8.854;2024-03-22T11:11:45;20.50;78.70
18225;DHT22;9237;48.590;8.854;2024-03-22T11:14:12;20.50;78.20
18225;DHT22;9237;48.590;8.854;2024-03-22T11:16:43;20.20;78.80
18225;DHT22;9237;48.590;8.854;2024-03-22T11:19:09;20.30;80.40
18225;DHT22;9237;48.590;8.854;2024-03-22T11:21:35;20.40;79.80
18225;DHT22;9237;48.590;8.854;2024-03-22T11:24:02;20.60;78.70
18225;DHT22;9237;48.590;8.854;2024-03-22T11:26:28;20.70;77.80
18225;DHT22;9237;48.590;8.854;2024-03-22T11:28:55;20.90;77.50
18225;DHT22;9237;48.590;8.854;2024-03-22T11:31:22;20.40;76.70
18225;DHT22;9237;48.590;8.854;2024-03-22T11:33:54;20.70;77.00
18225;DHT22;9237;48.590;8.854;2024-03-22T11:36:20;20.80;73.70
18225;DHT22;9237;48.590;8.854;2024-03-22T11:38:47;20.80;75.00
18225;DHT22;9237;48.590;8.854;2024-03-22T11:41:16;20.60;74.80
18225;DHT22;9237;48.590;8.854;2024-03-22T11:43:44;20.70;75.70
18225;DHT22;9237;48.590;8.854;2024-03-22T11:46:11;20.70;72.80
18225;DHT22;9237;48.590;8.854;2024-03-22T11:48:39;20.90;73.90
18225;DHT22;9237;48.590;8.854;2024-03-22T11:51:07;21.10;73.20
18225;DHT22;9237;48.590;8.854;2024-03-22T11:53:34;21.30;71.50
18225;DHT22;9237;48.590;8.854;2024-03-22T11:56:00;21.40;71.60
18225;DHT22;9237;48.590;8.854;2024-03-22T11:58:29;21.10;71.00
18225;DHT22;9237;48.590;8.854;2024-03-22T12:00:55;21.00;70.80
18225;DHT22;9237;48.590;8.854;2024-03-22T12:03:22;20.50;69.60
18225;DHT22;9237;48.590;8.854;2024-03-22T12:05:48;20.50;70.00
18225;DHT22;9237;48.590;8.854;2024-03-22T12:08:18;21.00;71.60
18225;DHT22;9237;48.590;8.854;2024-03-22T12:10:43;21.20;68.70
18225;DHT22;9237;48.590;8.854;2024-03-22T12:13:10;21.20;68.30
18225;DHT22;9237;48.590;8.854;2024-03-22T12:15:36;21.50;68.00
18225;DHT22;9237;48.590;8.854;2024-03-22T12:18:03;21.60;67.30
18225;DHT22;9237;48.590;8.854;2024-03-22T12:20:29;21.70;67.50
18225;DHT22;9237;48.590;8.854;2024-03-22T12:22:56;21.70;67.30
18225;DHT22;9237;48.590;8.854;2024-03-22T12:25:23;21.40;66.60
18225;DHT22;9237;48.590;8.854;2024-03-22T12:27:50;21.60;65.50
18225;DHT22;9237;48.590;8.854;2024-03-22T12:30:16;21.80;66.20
18225;DHT22;9237;48.590;8.854;2024-03-22T12:32:43;21.70;64.40
18225;DHT22;9237;48.590;8.854;2024-03-22T12:35:08;21.30;64.80
18225;DHT22;9237;48.590;8.854;2024-03-22T12:37:36;21.50;64.90
18225;DHT22;9237;48.590;8.854;2024-03-22T12:40:02;21.70;63.50
18225;DHT22;9237;48.590;8.854;2024-03-22T12:42:31;21.60;61.80
18225;DHT22;9237;48.590;8.854;2024-03-22T12:44:56;21.30;63.10
18225;DHT22;9237;48.590;8.854;2024-03-22T12:47:23;21.20;62.40
18225;DHT22;9237;48.590;8.854;2024-03-22T12:49:49;21.50;63.60
18225;DHT22;9237;48.590;8.854;2024-03-22T12:52:16;21.80;63.20
18225;DHT22;9237;48.590;8.854;2024-03-22T12:54:42;22.30;61.10
18225;DHT22;9237;48.590;8.854;2024-03-22T12:57:09;22.60;59.80
18225;DHT22;9237;48.590;8.854;2024-03-22T12:59:36;22.70;59.70
18225;DHT22;9237;48.590;8.854;2024-03-22T13:02:04;22.30;60.00
18225;DHT22;9237;48.590;8.854;2024-03-22T13:04:30;22.70;60.10
18225;DHT22;9237;48.590;8.854;2024-03-22T13:06:57;23.70;55.90
18225;DHT22;9237;48.590;8.854;2024-03-22T13:09:22;23.80;54.40
18225;DHT22;9237;48.590;8.854;2024-03-22T13:11:49;23.60;55.00
18225;DHT22;9237;48.590;8.854;2024-03-22T13:14:15;24.90;53.80
18225;DHT22;9237;48.590;8.854;2024-03-22T13:16:45;24.70;48.80
18225;DHT22;9237;48.590;8.854;2024-03-22T13:19:11;24.80;49.50
18225;DHT22;9237;48.590;8.854;2024-03-22T13:21:40;25.40;47.20
18225;DHT22;9237;48.590;8.854;2024-03-22T13:24:06;26.50;47.30
18225;DHT22;9237;48.590;8.854;2024-03-22T13:26:33;26.90;43.60
18225;DHT22;9237;48.590;8.854;2024-03-22T13:28:59;26.60;45.30
18225;DHT22;9237;48.590;8.854;2024-03-22T13:31:26;26.00;44.70
18225;DHT22;9237;48.590;8.854;2024-03-22T13:33:53;24.30;46.70
18225;DHT22;9237;48.590;8.854;2024-03-22T13:36:20;23.80;48.70
18225;DHT22;9237;48.590;8.854;2024-03-22T13:38:45;23.70;48.50
18225;DHT22;9237;48.590;8.854;2024-03-22T13:41:12;22.80;48.80
18225;DHT22;9237;48.590;8.854;2024-03-22T13:43:38;22.40;50.20
18225;DHT22;9237;48.590;8.854;2024-03-22T13:46:05;22.90;45.00
18225;DHT22;9237;48.590;8.854;2024-03-22T13:48:31;23.60;43.80
18225;DHT22;9237;48.590;8.854;2024-03-22T13:50:59;24.20;43.50
18225;DHT22;9237;48.590;8.854;2024-03-22T13:53:27;24.20;43.60
18225;DHT22;9237;48.590;8.854;2024-03-22T13:55:53;24.00;44.30
18225;DHT22;9237;48.590;8.854;2024-03-22T13:58:20;24.50;43.60
18225;DHT22;9237;48.590;8.854;2024-03-22T14:00:47;24.00;44.50
18225;DHT22;9237;48.590;8.854;2024-03-22T14:03:13;22.80;46.40
18225;DHT22;9237;48.590;8.854;2024-03-22T14:05:40;22.40;47.80
18225;DHT22;9237;48.590;8.854;2024-03-22T14:08:07;21.90;48.70
18225;DHT22;9237;48.590;8.854;2024-03-22T14:10:34;22.00;49.50
18225;DHT22;9237;48.590;8.854;2024-03-22T14:13:01;22.30;49.40
18225;DHT22;9237;48.590;8.854;2024-03-22T14:15:27;21.90;48.40
18225;DHT22;9237;48.590;8.854;2024-03-22T14:17:57;21.40;51.60
18225;DHT22;9237;48.590;8.854;2024-03-22T14:20:23;21.20;49.60
18225;DHT22;9237;48.590;8.854;2024-03-22T14:22:50;21.40;51.30
18225;DHT22;9237;48.590;8.854;2024-03-22T14:25:18;21.40;50.10
18225;DHT22;9237;48.590;8.854;2024-03-22T14:27:44;21.00;51.00
18225;DHT22;9237;48.590;8.854;2024-03-22T14:30:11;20.70;53.10
18225;DHT22;9237;48.590;8.854;2024-03-22T14:32:40;20.40;53.50
18225;DHT22;9237;48.590;8.854;2024-03-22T14:35:07;20.30;52.40
18225;DHT22;9237;48.590;8.854;2024-03-22T14:37:34;20.10;52.50
18225;DHT22;9237;48.590;8.854;2024-03-22T14:39:59;19.90;52.00
18225;DHT22;9237;48.590;8.854;2024-03-22T14:42:28;19.70;52.60
18225;DHT22;9237;48.590;8.854;2024-03-22T14:44:53;19.70;54.90
18225;DHT22;9237;48.590;8.854;2024-03-22T14:47:21;19.60;53.80
18225;DHT22;9237;48.590;8.854;2024-03-22T14:49:48;19.60;54.40
18225;DHT22;9237;48.590;8.854;2024-03-22T14:52:17;19.70;54.00
18225;DHT22;9237;48.590;8.854;2024-03-22T14:54:42;19.80;54.50
18225;DHT22;9237;48.590;8.854;2024-03-22T14:57:09;20.00;53.30
18225;DHT22;9237;48.590;8.854;2024-03-22T14:59:37;20.20;54.00
18225;DHT22;9237;48.590;8.854;2024-03-22T15:02:05;20.70;53.60
18225;DHT22;9237;48.590;8.854;2024-03-22T15:04:31;20.70;51.80
18225;DHT22;9237;48.590;8.854;2024-03-22T15:06:58;20.00;53.30
18225;DHT22;9237;48.590;8.854;2024-03-22T15:09:23;19.70;55.20
18225;DHT22;9237;48.590;8.854;2024-03-22T15:11:50;19.40;54.60
18225;DHT22;9237;48.590;8.854;2024-03-22T15:14:16;19.00;55.90
18225;DHT22;9237;48.590;8.854;2024-03-22T15:16:44;18.80;55.00
18225;DHT22;9237;48.590;8.854;2024-03-22T15:19:10;18.70;55.50
18225;DHT22;9237;48.590;8.854;2024-03-22T15:21:37;18.60;55.70
18225;DHT22;9237;48.590;8.854;2024-03-22T15:24:04;18.50;55.70
18225;DHT22;9237;48.590;8.854;2024-03-22T15:26:31;18.50;57.80
18225;DHT22;9237;48.590;8.854;2024-03-22T15:28:57;18.50;56.30
18225;DHT22;9237;48.590;8.854;2024-03-22T15:31:24;18.50;56.30
18225;DHT22;9237;48.590;8.854;2024-03-22T15:33:51;18.50;57.40
18225;DHT22;9237;48.590;8.854;2024-03-22T15:36:18;18.40;56.60
18225;DHT22;9237;48.590;8.854;2024-03-22T15:38:44;18.40;57.10
18225;DHT22;9237;48.590;8.854;2024-03-22T15:41:11;18.50;58.40
18225;DHT22;9237;48.590;8.854;2024-03-22T15:43:37;18.30;56.90
18225;DHT22;9237;48.590;8.854;2024-03-22T15:46:03;18.20;57.50
18225;DHT22;9237;48.590;8.854;2024-03-22T15:48:29;18.20;59.00